sensor_id;sensor_type;location;lat;lon;timestamp;P1;durP1;ratioP1;P2;durP2;ratioP2
19199;SDS011;9732;52.498;5.408;2023-04-30T00:01:00;0.30;;;0.30;;
19199;SDS011;9732;52.498;5.408;2023-04-30T00:03:27;0.20;;;0.20;;
19199;SDS011;9732;52.498;5.408;2023-04-30T00:05:55;0.23;;;0.23;;
19199;SDS011;9732;52.498;5.408;2023-04-30T00:08:21;0.30;;;0.30;;
19199;SDS011;9732;52.498;5.408;2023-04-30T00:10:48;0.30;;;0.30;;
19199;SDS011;9732;52.498;5.408;2023-04-30T00:13:15;0.30;;;0.30;;
19199;SDS011;9732;52.498;5.408;2023-04-30T00:15:43;0.20;;;0.20;;
19199;SDS011;9732;52.498;5.408;2023-04-30T00:18:09;0.30;;;0.30;;
19199;SDS011;9732;52.498;5.408;2023-04-30T00:20:36;0.20;;;0.20;;
19199;SDS011;9732;52.498;5.408;2023-04-30T00:23:04;0.30;;;0.30;;
19199;SDS011;9732;52.498;5.408;2023-04-30T00:25:31;0.20;;;0.20;;
19199;SDS011;9732;52.498;5.408;2023-04-30T00:27:58;0.30;;;0.30;;
19199;SDS011;9732;52.498;5.408;2023-04-30T00:30:24;0.30;;;0.30;;
19199;SDS011;9732;52.498;5.408;2023-04-30T00:32:51;0.27;;;0.27;;
19199;SDS011;9732;52.498;5.408;2023-04-30T00:35:18;0.20;;;0.20;;
19199;SDS011;9732;52.498;5.408;2023-04-30T00:37:45;0.30;;;0.30;;
19199;SDS011;9732;52.498;5.408;2023-04-30T00:40:13;0.30;;;0.30;;
19199;SDS011;9732;52.498;5.408;2023-04-30T00:42:40;0.30;;;0.30;;
19199;SDS011;9732;52.498;5.408;2023-04-30T00:45:07;0.20;;;0.20;;
19199;SDS011;9732;52.498;5.408;2023-04-30T00:47:36;0.20;;;0.20;;
19199;SDS011;9732;52.498;5.408;2023-04-30T00:50:02;0.20;;;0.20;;
19199;SDS011;9732;52.498;5.408;2023-04-30T00:52:29;0.20;;;0.20;;
19199;SDS011;9732;52.498;5.408;2023-04-30T00:54:56;0.30;;;0.30;;
19199;SDS011;9732;52.498;5.408;2023-04-30T00:57:25;0.20;;;0.20;;
19199;SDS011;9732;52.498;5.408;2023-04-30T00:59:52;0.20;;;0.20;;
19199;SDS011;9732;52.498;5.408;2023-04-30T01:02:20;0.30;;;0.30;;
19199;SDS011;9732;52.498;5.408;2023-04-30T01:04:48;0.20;;;0.20;;
19199;SDS011;9732;52.498;5.408;2023-04-30T01:07:15;0.30;;;0.30;;
19199;SDS011;9732;52.498;5.408;2023-04-30T01:09:42;0.20;;;0.20;;
19199;SDS011;9732;52.498;5.408;2023-04-30T01:12:12;0.30;;;0.30;;
19199;SDS011;9732;52.498;5.408;2023-04-30T01:14:47;0.23;;;0.23;;
19199;SDS011;9732;52.498;5.408;2023-04-30T01:17:23;0.30;;;0.30;;
19199;SDS011;9732;52.498;5.408;2023-04-30T01:19:57;0.30;;;0.30;;
19199;SDS011;9732;52.498;5.408;2023-04-30T01:22:29;0.30;;;0.30;;
19199;SDS011;9732;52.498;5.408;2023-04-30T01:28:03;0.20;;;0.20;;
19199;SDS011;9732;52.498;5.408;2023-04-30T01:30:32;0.20;;;0.20;;
19199;SDS011;9732;52.498;5.408;2023-04-30T01:33:01;0.20;;;0.20;;
19199;SDS011;9732;52.498;5.408;2023-04-30T01:35:33;0.30;;;0.30;;
19199;SDS011;9732;52.498;5.408;2023-04-30T01:38:30;0.30;;;0.30;;
19199;SDS011;9732;52.498;5.408;2023-04-30T01:41:08;0.20;;;0.20;;
19199;SDS011;9732;52.498;5.408;2023-04-30T01:43:44;0.30;;;0.30;;
19199;SDS011;9732;52.498;5.408;2023-04-30T01:46:21;0.30;;;0.30;;
19199;SDS011;9732;52.498;5.408;2023-04-30T01:48:53;0.20;;;0.20;;
19199;SDS011;9732;52.498;5.408;2023-04-30T01:51:27;0.20;;;0.20;;
19199;SDS011;9732;52.498;5.408;2023-04-30T01:54:01;0.30;;;0.30;;
19199;SDS011;9732;52.498;5.408;2023-04-30T01:56:36;0.30;;;0.30;;
19199;SDS011;9732;52.498;5.408;2023-04-30T01:59:10;0.30;;;0.30;;
19199;SDS011;9732;52.498;5.408;2023-04-30T02:01:39;0.30;;;0.30;;
19199;SDS011;9732;52.498;5.408;2023-04-30T02:04:06;0.30;;;0.30;;
19199;SDS011;9732;52.498;5.408;2023-04-30T02:06:33;0.30;;;0.30;;
19199;SDS011;9732;52.498;5.408;2023-04-30T02:08:59;0.30;;;0.30;;
19199;SDS011;9732;52.498;5.408;2023-04-30T02:11:29;0.30;;;0.30;;
19199;SDS011;9732;52.498;5.408;2023-04-30T02:13:56;0.23;;;0.23;;
19199;SDS011;9732;52.498;5.408;2023-04-30T02:16:24;0.30;;;0.30;;
19199;SDS011;9732;52.498;5.408;2023-04-30T02:18:50;0.27;;;0.27;;
19199;SDS011;9732;52.498;5.408;2023-04-30T02:21:17;0.30;;;0.30;;
19199;SDS011;9732;52.498;5.408;2023-04-30T02:23:44;0.30;;;0.30;;
19199;SDS011;9732;52.498;5.408;2023-04-30T02:26:11;0.30;;;0.30;;
19199;SDS011;9732;52.498;5.408;2023-04-30T02:28:38;0.30;;;0.30;;
19199;SDS011;9732;52.498;5.408;2023-04-30T02:31:04;0.20;;;0.20;;
19199;SDS011;9732;52.498;5.408;2023-04-30T02:33:32;0.30;;;0.30;;
19199;SDS011;9732;52.498;5.408;2023-04-30T02:35:59;0.30;;;0.30;;
19199;SDS011;9732;52.498;5.408;2023-04-30T02:38:26;0.30;;;0.30;;
19199;SDS011;9732;52.498;5.408;2023-04-30T02:40:53;0.30;;;0.30;;
19199;SDS011;9732;52.498;5.408;2023-04-30T02:43:20;0.30;;;0.30;;
19199;SDS011;9732;52.498;5.408;2023-04-30T02:45:46;0.30;;;0.30;;
19199;SDS011;9732;52.498;5.408;2023-04-30T02:48:13;0.30;;;0.30;;
19199;SDS011;9732;52.498;5.408;2023-04-30T02:50:41;0.20;;;0.20;;
19199;SDS011;9732;52.498;5.408;2023-04-30T02:53:08;0.30;;;0.30;;
19199;SDS011;9732;52.498;5.408;2023-04-30T02:55:35;0.30;;;0.30;;
19199;SDS011;9732;52.498;5.408;2023-04-30T02:58:02;0.30;;;0.30;;
19199;SDS011;9732;52.498;5.408;2023-04-30T03:00:28;0.30;;;0.30;;
19199;SDS011;9732;52.498;5.408;2023-04-30T03:02:55;0.30;;;0.30;;
19199;SDS011;9732;52.498;5.408;2023-04-30T03:05:22;0.30;;;0.30;;
19199;SDS011;9732;52.498;5.408;2023-04-30T03:07:50;0.30;;;0.30;;
19199;SDS011;9732;52.498;5.408;2023-04-30T03:10:17;0.23;;;0.23;;
19199;SDS011;9732;52.498;5.408;2023-04-30T03:12:44;0.20;;;0.20;;
19199;SDS011;9732;52.498;5.408;2023-04-30T03:15:11;0.30;;;0.30;;
19199;SDS011;9732;52.498;5.408;2023-04-30T03:17:37;0.30;;;0.30;;
19199;SDS011;9732;52.498;5.408;2023-04-30T03:20:04;0.30;;;0.30;;
19199;SDS011;9732;52.498;5.408;2023-04-30T03:22:32;0.30;;;0.30;;
19199;SDS011;9732;52.498;5.408;2023-04-30T03:25:00;0.30;;;0.30;;
19199;SDS011;9732;52.498;5.408;2023-04-30T03:27:27;0.30;;;0.30;;
19199;SDS011;9732;52.498;5.408;2023-04-30T03:29:54;0.20;;;0.20;;
19199;SDS011;9732;52.498;5.408;2023-04-30T03:32:20;0.30;;;0.30;;
19199;SDS011;9732;52.498;5.408;2023-04-30T03:34:47;0.20;;;0.20;;
19199;SDS011;9732;52.498;5.408;2023-04-30T03:37:14;0.30;;;0.30;;
19199;SDS011;9732;52.498;5.408;2023-04-30T03:39:41;0.30;;;0.30;;
19199;SDS011;9732;52.498;5.408;2023-04-30T03:42:09;0.30;;;0.30;;
19199;SDS011;9732;52.498;5.408;2023-04-30T03:44:35;0.30;;;0.30;;
19199;SDS011;9732;52.498;5.408;2023-04-30T03:47:03;0.30;;;0.30;;
19199;SDS011;9732;52.498;5.408;2023-04-30T03:49:29;0.30;;;0.30;;
19199;SDS011;9732;52.498;5.408;2023-04-30T03:51:56;0.30;;;0.30;;
19199;SDS011;9732;52.498;5.408;2023-04-30T03:54:23;0.30;;;0.30;;
19199;SDS011;9732;52.498;5.408;2023-04-30T03:56:50;0.30;;;0.30;;
19199;SDS011;9732;52.498;5.408;2023-04-30T03:59:18;0.30;;;0.30;;
19199;SDS011;9732;52.498;5.408;2023-04-30T04:01:45;0.30;;;0.30;;
19199;SDS011;9732;52.498;5.408;2023-04-30T04:04:12;0.30;;;0.30;;
19199;SDS011;9732;52.498;5.408;2023-04-30T04:06:39;0.30;;;0.30;;
19199;SDS011;9732;52.498;5.408;2023-04-30T04:09:05;0.30;;;0.30;;
19199;SDS011;9732;52.498;5.408;2023-04-30T04:11:32;0.30;;;0.30;;
19199;SDS011;9732;52.498;5.408;2023-04-30T04:13:59;0.30;;;0.30;;
19199;SDS011;9732;52.498;5.408;2023-04-30T04:16:27;0.30;;;0.30;;
19199;SDS011;9732;52.498;5.408;2023-04-30T04:18:54;0.30;;;0.30;;
19199;SDS011;9732;52.498;5.408;2023-04-30T04:21:20;0.30;;;0.30;;
19199;SDS011;9732;52.498;5.408;2023-04-30T04:23:48;0.30;;;0.30;;
19199;SDS011;9732;52.498;5.408;2023-04-30T04:26:15;0.30;;;0.30;;
19199;SDS011;9732;52.498;5.408;2023-04-30T04:28:43;0.30;;;0.30;;
19199;SDS011;9732;52.498;5.408;2023-04-30T04:31:10;0.30;;;0.30;;
19199;SDS011;9732;52.498;5.408;2023-04-30T04:33:38;0.20;;;0.20;;
19199;SDS011;9732;52.498;5.408;2023-04-30T04:36:05;0.20;;;0.20;;
19199;SDS011;9732;52.498;5.408;2023-04-30T04:38:32;0.30;;;0.30;;
19199;SDS011;9732;52.498;5.408;2023-04-30T04:40:59;0.37;;;0.37;;
19199;SDS011;9732;52.498;5.408;2023-04-30T04:43:26;0.30;;;0.30;;
19199;SDS011;9732;52.498;5.408;2023-04-30T04:45:52;0.30;;;0.30;;
19199;SDS011;9732;52.498;5.408;2023-04-30T04:48:19;0.40;;;0.40;;
19199;SDS011;9732;52.498;5.408;2023-04-30T04:50:47;0.30;;;0.30;;
19199;SDS011;9732;52.498;5.408;2023-04-30T04:53:14;0.30;;;0.30;;
19199;SDS011;9732;52.498;5.408;2023-04-30T04:55:41;0.30;;;0.30;;
19199;SDS011;9732;52.498;5.408;2023-04-30T04:58:07;0.30;;;0.30;;
19199;SDS011;9732;52.498;5.408;2023-04-30T05:00:35;0.30;;;0.30;;
19199;SDS011;9732;52.498;5.408;2023-04-30T05:03:01;0.30;;;0.30;;
19199;SDS011;9732;52.498;5.408;2023-04-30T05:05:28;0.30;;;0.30;;
19199;SDS011;9732;52.498;5.408;2023-04-30T05:07:56;0.30;;;0.30;;
19199;SDS011;9732;52.498;5.408;2023-04-30T05:10:23;0.30;;;0.30;;
19199;SDS011;9732;52.498;5.408;2023-04-30T05:12:49;0.30;;;0.30;;
19199;SDS011;9732;52.498;5.408;2023-04-30T05:15:16;0.30;;;0.30;;
19199;SDS011;9732;52.498;5.408;2023-04-30T05:17:43;0.30;;;0.30;;
19199;SDS011;9732;52.498;5.408;2023-04-30T05:20:11;0.30;;;0.30;;
19199;SDS011;9732;52.498;5.408;2023-04-30T05:22:38;0.20;;;0.20;;
19199;SDS011;9732;52.498;5.408;2023-04-30T05:25:07;0.20;;;0.20;;
19199;SDS011;9732;52.498;5.408;2023-04-30T05:27:34;0.30;;;0.30;;
19199;SDS011;9732;52.498;5.408;2023-04-30T05:30:01;0.30;;;0.30;;
19199;SDS011;9732;52.498;5.408;2023-04-30T05:32:28;0.20;;;0.20;;
19199;SDS011;9732;52.498;5.408;2023-04-30T05:34:54;0.30;;;0.30;;
19199;SDS011;9732;52.498;5.408;2023-04-30T05:37:21;0.30;;;0.30;;
19199;SDS011;9732;52.498;5.408;2023-04-30T05:39:48;0.30;;;0.30;;
19199;SDS011;9732;52.498;5.408;2023-04-30T05:42:16;0.30;;;0.30;;
19199;SDS011;9732;52.498;5.408;2023-04-30T05:44:43;0.30;;;0.30;;
19199;SDS011;9732;52.498;5.408;2023-04-30T05:47:10;0.20;;;0.20;;
19199;SDS011;9732;52.498;5.408;2023-04-30T05:49:36;0.30;;;0.30;;
19199;SDS011;9732;52.498;5.408;2023-04-30T05:52:03;0.30;;;0.30;;
19199;SDS011;9732;52.498;5.408;2023-04-30T05:54:30;0.30;;;0.30;;
19199;SDS011;9732;52.498;5.408;2023-04-30T05:56:57;0.20;;;0.20;;
19199;SDS011;9732;52.498;5.408;2023-04-30T05:59:25;0.30;;;0.30;;
19199;SDS011;9732;52.498;5.408;2023-04-30T06:01:52;0.30;;;0.30;;
19199;SDS011;9732;52.498;5.408;2023-04-30T06:04:19;0.30;;;0.30;;
19199;SDS011;9732;52.498;5.408;2023-04-30T06:06:45;0.20;;;0.20;;
19199;SDS011;9732;52.498;5.408;2023-04-30T06:09:12;0.30;;;0.30;;
19199;SDS011;9732;52.498;5.408;2023-04-30T06:11:40;0.30;;;0.30;;
19199;SDS011;9732;52.498;5.408;2023-04-30T06:14:06;0.30;;;0.30;;
19199;SDS011;9732;52.498;5.408;2023-04-30T06:16:35;0.27;;;0.27;;
19199;SDS011;9732;52.498;5.408;2023-04-30T06:19:01;0.20;;;0.20;;
19199;SDS011;9732;52.498;5.408;2023-04-30T06:21:28;0.27;;;0.27;;
19199;SDS011;9732;52.498;5.408;2023-04-30T06:23:55;0.20;;;0.20;;
19199;SDS011;9732;52.498;5.408;2023-04-30T06:26:22;0.30;;;0.30;;
19199;SDS011;9732;52.498;5.408;2023-04-30T06:28:49;0.30;;;0.30;;
19199;SDS011;9732;52.498;5.408;2023-04-30T06:31:16;0.23;;;0.23;;
19199;SDS011;9732;52.498;5.408;2023-04-30T06:33:44;0.30;;;0.30;;
19199;SDS011;9732;52.498;5.408;2023-04-30T06:36:10;0.30;;;0.30;;
19199;SDS011;9732;52.498;5.408;2023-04-30T06:38:37;0.30;;;0.30;;
19199;SDS011;9732;52.498;5.408;2023-04-30T06:41:05;0.30;;;0.30;;
19199;SDS011;9732;52.498;5.408;2023-04-30T06:43:32;0.27;;;0.27;;
19199;SDS011;9732;52.498;5.408;2023-04-30T06:45:58;0.30;;;0.30;;
19199;SDS011;9732;52.498;5.408;2023-04-30T06:48:25;0.30;;;0.30;;
19199;SDS011;9732;52.498;5.408;2023-04-30T06:50:53;0.20;;;0.20;;
19199;SDS011;9732;52.498;5.408;2023-04-30T06:53:20;0.30;;;0.30;;
19199;SDS011;9732;52.498;5.408;2023-04-30T06:55:47;0.20;;;0.20;;
19199;SDS011;9732;52.498;5.408;2023-04-30T06:58:14;0.20;;;0.20;;
19199;SDS011;9732;52.498;5.408;2023-04-30T07:00:42;0.23;;;0.23;;
19199;SDS011;9732;52.498;5.408;2023-04-30T07:03:09;0.20;;;0.20;;
19199;SDS011;9732;52.498;5.408;2023-04-30T07:05:36;0.30;;;0.30;;
19199;SDS011;9732;52.498;5.408;2023-04-30T07:08:05;0.20;;;0.20;;
19199;SDS011;9732;52.498;5.408;2023-04-30T07:10:32;0.20;;;0.20;;
19199;SDS011;9732;52.498;5.408;2023-04-30T07:12:58;0.30;;;0.30;;
19199;SDS011;9732;52.498;5.408;2023-04-30T07:15:25;0.27;;;0.27;;
19199;SDS011;9732;52.498;5.408;2023-04-30T07:17:52;0.20;;;0.20;;
19199;SDS011;9732;52.498;5.408;2023-04-30T07:20:19;0.20;;;0.20;;
19199;SDS011;9732;52.498;5.408;2023-04-30T07:22:45;0.20;;;0.20;;
19199;SDS011;9732;52.498;5.408;2023-04-30T07:25:13;0.20;;;0.20;;
19199;SDS011;9732;52.498;5.408;2023-04-30T07:27:40;0.20;;;0.20;;
19199;SDS011;9732;52.498;5.408;2023-04-30T07:30:07;0.20;;;0.20;;
19199;SDS011;9732;52.498;5.408;2023-04-30T07:32:35;0.20;;;0.20;;
19199;SDS011;9732;52.498;5.408;2023-04-30T07:35:02;0.20;;;0.20;;
19199;SDS011;9732;52.498;5.408;2023-04-30T07:37:30;0.20;;;0.20;;
19199;SDS011;9732;52.498;5.408;2023-04-30T07:39:57;0.20;;;0.20;;
19199;SDS011;9732;52.498;5.408;2023-04-30T07:42:26;0.30;;;0.30;;
19199;SDS011;9732;52.498;5.408;2023-04-30T07:44:52;0.30;;;0.30;;
19199;SDS011;9732;52.498;5.408;2023-04-30T07:47:19;0.20;;;0.20;;
19199;SDS011;9732;52.498;5.408;2023-04-30T07:49:46;0.20;;;0.20;;
19199;SDS011;9732;52.498;5.408;2023-04-30T07:52:13;0.30;;;0.30;;
19199;SDS011;9732;52.498;5.408;2023-04-30T07:54:39;0.20;;;0.20;;
19199;SDS011;9732;52.498;5.408;2023-04-30T07:57:06;0.20;;;0.20;;
19199;SDS011;9732;52.498;5.408;2023-04-30T07:59:34;0.20;;;0.20;;
19199;SDS011;9732;52.498;5.408;2023-04-30T08:02:01;0.20;;;0.20;;
19199;SDS011;9732;52.498;5.408;2023-04-30T08:04:28;0.30;;;0.30;;
19199;SDS011;9732;52.498;5.408;2023-04-30T08:06:55;0.20;;;0.20;;
19199;SDS011;9732;52.498;5.408;2023-04-30T08:09:21;0.20;;;0.20;;
19199;SDS011;9732;52.498;5.408;2023-04-30T08:11:48;0.20;;;0.20;;
19199;SDS011;9732;52.498;5.408;2023-04-30T08:14:15;0.20;;;0.20;;
19199;SDS011;9732;52.498;5.408;2023-04-30T08:16:43;0.20;;;0.20;;
19199;SDS011;9732;52.498;5.408;2023-04-30T08:19:10;0.20;;;0.20;;
19199;SDS011;9732;52.498;5.408;2023-04-30T08:21:36;0.20;;;0.20;;
19199;SDS011;9732;52.498;5.408;2023-04-30T08:24:03;0.20;;;0.20;;
19199;SDS011;9732;52.498;5.408;2023-04-30T08:26:30;0.20;;;0.20;;
19199;SDS011;9732;52.498;5.408;2023-04-30T08:28:57;0.20;;;0.20;;
19199;SDS011;9732;52.498;5.408;2023-04-30T08:31:24;0.20;;;0.20;;
19199;SDS011;9732;52.498;5.408;2023-04-30T08:33:52;0.10;;;0.10;;
19199;SDS011;9732;52.498;5.408;2023-04-30T08:36:18;0.20;;;0.20;;
19199;SDS011;9732;52.498;5.408;2023-04-30T08:38:45;0.10;;;0.10;;
19199;SDS011;9732;52.498;5.408;2023-04-30T08:41:13;0.20;;;0.20;;
19199;SDS011;9732;52.498;5.408;2023-04-30T08:43:41;0.10;;;0.10;;
19199;SDS011;9732;52.498;5.408;2023-04-30T08:46:08;0.20;;;0.20;;
19199;SDS011;9732;52.498;5.408;2023-04-30T08:48:38;0.20;;;0.20;;
19199;SDS011;9732;52.498;5.408;2023-04-30T08:51:07;0.20;;;0.20;;
19199;SDS011;9732;52.498;5.408;2023-04-30T08:53:34;0.20;;;0.20;;
19199;SDS011;9732;52.498;5.408;2023-04-30T08:56:02;0.20;;;0.20;;
19199;SDS011;9732;52.498;5.408;2023-04-30T08:58:30;0.20;;;0.20;;
19199;SDS011;9732;52.498;5.408;2023-04-30T09:00:58;0.20;;;0.20;;
19199;SDS011;9732;52.498;5.408;2023-04-30T09:03:26;0.13;;;0.13;;
19199;SDS011;9732;52.498;5.408;2023-04-30T09:05:54;0.20;;;0.20;;
19199;SDS011;9732;52.498;5.408;2023-04-30T09:11:18;0.20;;;0.20;;
19199;SDS011;9732;52.498;5.408;2023-04-30T09:13:47;0.10;;;0.10;;
19199;SDS011;9732;52.498;5.408;2023-04-30T09:16:15;0.20;;;0.20;;
19199;SDS011;9732;52.498;5.408;2023-04-30T09:18:41;0.20;;;0.20;;
19199;SDS011;9732;52.498;5.408;2023-04-30T09:21:08;0.10;;;0.10;;
19199;SDS011;9732;52.498;5.408;2023-04-30T09:23:35;0.10;;;0.10;;
19199;SDS011;9732;52.498;5.408;2023-04-30T09:26:03;0.10;;;0.10;;
19199;SDS011;9732;52.498;5.408;2023-04-30T09:28:30;0.10;;;0.10;;
19199;SDS011;9732;52.498;5.408;2023-04-30T09:30:57;0.15;;;0.15;;
19199;SDS011;9732;52.498;5.408;2023-04-30T09:33:24;0.10;;;0.10;;
19199;SDS011;9732;52.498;5.408;2023-04-30T09:35:51;0.10;;;0.10;;
19199;SDS011;9732;52.498;5.408;2023-04-30T09:38:31;0.10;;;0.10;;
19199;SDS011;9732;52.498;5.408;2023-04-30T09:40:58;0.10;;;0.10;;
19199;SDS011;9732;52.498;5.408;2023-04-30T09:43:27;0.03;;;0.03;;
19199;SDS011;9732;52.498;5.408;2023-04-30T09:45:56;0.20;;;0.20;;
19199;SDS011;9732;52.498;5.408;2023-04-30T09:48:24;0.10;;;0.10;;
19199;SDS011;9732;52.498;5.408;2023-04-30T09:50:52;0.10;;;0.10;;
19199;SDS011;9732;52.498;5.408;2023-04-30T09:53:19;0.10;;;0.10;;
19199;SDS011;9732;52.498;5.408;2023-04-30T09:55:48;0.10;;;0.10;;
19199;SDS011;9732;52.498;5.408;2023-04-30T09:58:16;0.05;;;0.05;;
19199;SDS011;9732;52.498;5.408;2023-04-30T10:00:45;0.10;;;0.10;;
19199;SDS011;9732;52.498;5.408;2023-04-30T10:03:15;0.00;;;0.00;;
19199;SDS011;9732;52.498;5.408;2023-04-30T10:05:42;0.00;;;0.00;;
19199;SDS011;9732;52.498;5.408;2023-04-30T10:08:12;0.00;;;0.00;;
19199;SDS011;9732;52.498;5.408;2023-04-30T10:10:44;0.00;;;0.00;;
19199;SDS011;9732;52.498;5.408;2023-04-30T10:13:17;0.00;;;0.00;;
19199;SDS011;9732;52.498;5.408;2023-04-30T10:15:49;0.00;;;0.00;;
19199;SDS011;9732;52.498;5.408;2023-04-30T10:18:18;0.00;;;0.00;;
19199;SDS011;9732;52.498;5.408;2023-04-30T10:20:49;0.00;;;0.00;;
19199;SDS011;9732;52.498;5.408;2023-04-30T10:23:18;0.00;;;0.00;;
19199;SDS011;9732;52.498;5.408;2023-04-30T10:25:46;0.00;;;0.00;;
19199;SDS011;9732;52.498;5.408;2023-04-30T10:28:13;0.00;;;0.00;;
19199;SDS011;9732;52.498;5.408;2023-04-30T10:30:40;0.00;;;0.00;;
19199;SDS011;9732;52.498;5.408;2023-04-30T10:33:11;0.00;;;0.00;;
19199;SDS011;9732;52.498;5.408;2023-04-30T10:35:45;0.00;;;0.00;;
19199;SDS011;9732;52.498;5.408;2023-04-30T10:38:17;0.00;;;0.00;;
19199;SDS011;9732;52.498;5.408;2023-04-30T10:40:49;0.00;;;0.00;;
19199;SDS011;9732;52.498;5.408;2023-04-30T10:43:16;0.00;;;0.00;;
19199;SDS011;9732;52.498;5.408;2023-04-30T10:45:44;0.00;;;0.00;;
19199;SDS011;9732;52.498;5.408;2023-04-30T10:48:14;0.10;;;0.10;;
19199;SDS011;9732;52.498;5.408;2023-04-30T10:50:49;0.00;;;0.00;;
19199;SDS011;9732;52.498;5.408;2023-04-30T10:53:17;0.00;;;0.00;;
19199;SDS011;9732;52.498;5.408;2023-04-30T10:55:47;0.00;;;0.00;;
19199;SDS011;9732;52.498;5.408;2023-04-30T10:58:23;0.00;;;0.00;;
19199;SDS011;9732;52.498;5.408;2023-04-30T11:00:58;0.00;;;0.00;;
19199;SDS011;9732;52.498;5.408;2023-04-30T11:03:30;0.00;;;0.00;;
19199;SDS011;9732;52.498;5.408;2023-04-30T11:05:59;0.00;;;0.00;;
19199;SDS011;9732;52.498;5.408;2023-04-30T11:08:33;0.00;;;0.00;;
19199;SDS011;9732;52.498;5.408;2023-04-30T11:11:06;0.00;;;0.00;;
19199;SDS011;9732;52.498;5.408;2023-04-30T11:16:10;0.00;;;0.00;;
19199;SDS011;9732;52.498;5.408;2023-04-30T11:18:42;0.00;;;0.00;;
19199;SDS011;9732;52.498;5.408;2023-04-30T11:21:09;0.00;;;0.00;;
19199;SDS011;9732;52.498;5.408;2023-04-30T11:23:36;0.00;;;0.00;;
19199;SDS011;9732;52.498;5.408;2023-04-30T11:26:07;0.00;;;0.00;;
19199;SDS011;9732;52.498;5.408;2023-04-30T11:28:34;0.00;;;0.00;;
19199;SDS011;9732;52.498;5.408;2023-04-30T11:31:02;0.00;;;0.00;;
19199;SDS011;9732;52.498;5.408;2023-04-30T11:33:30;0.00;;;0.00;;
19199;SDS011;9732;52.498;5.408;2023-04-30T11:36:00;0.00;;;0.00;;
19199;SDS011;9732;52.498;5.408;2023-04-30T11:38:28;0.00;;;0.00;;
19199;SDS011;9732;52.498;5.408;2023-04-30T11:40:56;0.00;;;0.00;;
19199;SDS011;9732;52.498;5.408;2023-04-30T11:43:23;0.00;;;0.00;;
19199;SDS011;9732;52.498;5.408;2023-04-30T11:46:04;0.00;;;0.00;;
19199;SDS011;9732;52.498;5.408;2023-04-30T11:48:33;0.00;;;0.00;;
19199;SDS011;9732;52.498;5.408;2023-04-30T11:51:10;0.00;;;0.00;;
19199;SDS011;9732;52.498;5.408;2023-04-30T11:53:40;0.00;;;0.00;;
19199;SDS011;9732;52.498;5.408;2023-04-30T11:56:07;0.00;;;0.00;;
19199;SDS011;9732;52.498;5.408;2023-04-30T11:58:34;0.00;;;0.00;;
19199;SDS011;9732;52.498;5.408;2023-04-30T12:01:03;0.00;;;0.00;;
19199;SDS011;9732;52.498;5.408;2023-04-30T12:03:30;0.00;;;0.00;;
19199;SDS011;9732;52.498;5.408;2023-04-30T12:05:57;0.00;;;0.00;;
19199;SDS011;9732;52.498;5.408;2023-04-30T12:08:27;0.00;;;0.00;;
19199;SDS011;9732;52.498;5.408;2023-04-30T12:10:54;0.00;;;0.00;;
19199;SDS011;9732;52.498;5.408;2023-04-30T12:13:20;0.00;;;0.00;;
19199;SDS011;9732;52.498;5.408;2023-04-30T12:15:56;0.00;;;0.00;;
19199;SDS011;9732;52.498;5.408;2023-04-30T12:18:24;0.00;;;0.00;;
19199;SDS011;9732;52.498;5.408;2023-04-30T12:20:51;0.00;;;0.00;;
19199;SDS011;9732;52.498;5.408;2023-04-30T12:23:18;0.00;;;0.00;;
19199;SDS011;9732;52.498;5.408;2023-04-30T12:25:46;0.00;;;0.00;;
19199;SDS011;9732;52.498;5.408;2023-04-30T12:28:13;0.00;;;0.00;;
19199;SDS011;9732;52.498;5.408;2023-04-30T12:30:41;0.00;;;0.00;;
19199;SDS011;9732;52.498;5.408;2023-04-30T12:33:09;0.00;;;0.00;;
19199;SDS011;9732;52.498;5.408;2023-04-30T12:35:36;0.00;;;0.00;;
19199;SDS011;9732;52.498;5.408;2023-04-30T12:38:08;0.00;;;0.00;;
19199;SDS011;9732;52.498;5.408;2023-04-30T12:40:34;0.00;;;0.00;;
19199;SDS011;9732;52.498;5.408;2023-04-30T12:43:03;0.00;;;0.00;;
19199;SDS011;9732;52.498;5.408;2023-04-30T12:45:43;0.00;;;0.00;;
19199;SDS011;9732;52.498;5.408;2023-04-30T12:48:12;0.00;;;0.00;;
19199;SDS011;9732;52.498;5.408;2023-04-30T12:50:39;0.00;;;0.00;;
19199;SDS011;9732;52.498;5.408;2023-04-30T12:53:07;0.00;;;0.00;;
19199;SDS011;9732;52.498;5.408;2023-04-30T12:55:34;0.00;;;0.00;;
19199;SDS011;9732;52.498;5.408;2023-04-30T12:58:07;0.00;;;0.00;;
19199;SDS011;9732;52.498;5.408;2023-04-30T13:00:41;0.00;;;0.00;;
19199;SDS011;9732;52.498;5.408;2023-04-30T13:03:10;0.00;;;0.00;;
19199;SDS011;9732;52.498;5.408;2023-04-30T13:05:37;0.00;;;0.00;;
19199;SDS011;9732;52.498;5.408;2023-04-30T13:08:04;0.00;;;0.00;;
19199;SDS011;9732;52.498;5.408;2023-04-30T13:10:31;0.00;;;0.00;;
19199;SDS011;9732;52.498;5.408;2023-04-30T13:12:58;0.00;;;0.00;;
19199;SDS011;9732;52.498;5.408;2023-04-30T13:15:27;0.00;;;0.00;;
19199;SDS011;9732;52.498;5.408;2023-04-30T13:17:53;0.00;;;0.00;;
19199;SDS011;9732;52.498;5.408;2023-04-30T13:20:20;0.00;;;0.00;;
19199;SDS011;9732;52.498;5.408;2023-04-30T13:22:48;0.00;;;0.00;;
19199;SDS011;9732;52.498;5.408;2023-04-30T13:25:15;0.00;;;0.00;;
19199;SDS011;9732;52.498;5.408;2023-04-30T13:27:42;0.00;;;0.00;;
19199;SDS011;9732;52.498;5.408;2023-04-30T13:30:09;0.00;;;0.00;;
19199;SDS011;9732;52.498;5.408;2023-04-30T13:32:38;0.00;;;0.00;;
19199;SDS011;9732;52.498;5.408;2023-04-30T13:35:05;0.00;;;0.00;;
19199;SDS011;9732;52.498;5.408;2023-04-30T13:37:33;0.00;;;0.00;;
19199;SDS011;9732;52.498;5.408;2023-04-30T13:40:00;0.00;;;0.00;;
19199;SDS011;9732;52.498;5.408;2023-04-30T13:42:27;0.00;;;0.00;;
19199;SDS011;9732;52.498;5.408;2023-04-30T13:44:55;0.00;;;0.00;;
19199;SDS011;9732;52.498;5.408;2023-04-30T13:47:21;0.00;;;0.00;;
19199;SDS011;9732;52.498;5.408;2023-04-30T13:49:49;0.00;;;0.00;;
19199;SDS011;9732;52.498;5.408;2023-04-30T13:52:16;0.00;;;0.00;;
19199;SDS011;9732;52.498;5.408;2023-04-30T13:54:43;0.00;;;0.00;;
19199;SDS011;9732;52.498;5.408;2023-04-30T13:57:09;0.00;;;0.00;;
19199;SDS011;9732;52.498;5.408;2023-04-30T13:59:36;0.00;;;0.00;;
19199;SDS011;9732;52.498;5.408;2023-04-30T14:02:03;0.00;;;0.00;;
19199;SDS011;9732;52.498;5.408;2023-04-30T14:04:30;0.00;;;0.00;;
19199;SDS011;9732;52.498;5.408;2023-04-30T14:06:58;0.00;;;0.00;;
19199;SDS011;9732;52.498;5.408;2023-04-30T14:09:25;0.00;;;0.00;;
19199;SDS011;9732;52.498;5.408;2023-04-30T14:11:52;0.00;;;0.00;;
19199;SDS011;9732;52.498;5.408;2023-04-30T14:14:20;0.00;;;0.00;;
19199;SDS011;9732;52.498;5.408;2023-04-30T14:16:46;0.00;;;0.00;;
19199;SDS011;9732;52.498;5.408;2023-04-30T14:19:13;0.00;;;0.00;;
19199;SDS011;9732;52.498;5.408;2023-04-30T14:21:40;0.00;;;0.00;;
19199;SDS011;9732;52.498;5.408;2023-04-30T14:24:08;0.00;;;0.00;;
19199;SDS011;9732;52.498;5.408;2023-04-30T14:26:36;0.00;;;0.00;;
19199;SDS011;9732;52.498;5.408;2023-04-30T14:29:04;0.00;;;0.00;;
19199;SDS011;9732;52.498;5.408;2023-04-30T14:31:31;0.00;;;0.00;;
19199;SDS011;9732;52.498;5.408;2023-04-30T14:33:58;0.00;;;0.00;;
19199;SDS011;9732;52.498;5.408;2023-04-30T14:36:25;0.00;;;0.00;;
19199;SDS011;9732;52.498;5.408;2023-04-30T14:38:52;0.00;;;0.00;;
19199;SDS011;9732;52.498;5.408;2023-04-30T14:41:20;0.00;;;0.00;;
19199;SDS011;9732;52.498;5.408;2023-04-30T14:43:46;0.00;;;0.00;;
19199;SDS011;9732;52.498;5.408;2023-04-30T14:46:13;0.00;;;0.00;;
19199;SDS011;9732;52.498;5.408;2023-04-30T14:48:40;0.00;;;0.00;;
19199;SDS011;9732;52.498;5.408;2023-04-30T14:51:07;0.00;;;0.00;;
19199;SDS011;9732;52.498;5.408;2023-04-30T14:53:33;0.00;;;0.00;;
19199;SDS011;9732;52.498;5.408;2023-04-30T14:56:01;0.00;;;0.00;;
19199;SDS011;9732;52.498;5.408;2023-04-30T14:58:29;0.00;;;0.00;;
19199;SDS011;9732;52.498;5.408;2023-04-30T15:00:56;0.00;;;0.00;;
19199;SDS011;9732;52.498;5.408;2023-04-30T15:03:23;0.00;;;0.00;;
19199;SDS011;9732;52.498;5.408;2023-04-30T15:05:50;0.00;;;0.00;;
19199;SDS011;9732;52.498;5.408;2023-04-30T15:08:17;0.00;;;0.00;;
19199;SDS011;9732;52.498;5.408;2023-04-30T15:10:44;0.00;;;0.00;;
19199;SDS011;9732;52.498;5.408;2023-04-30T15:13:11;0.00;;;0.00;;